Time;durP1;ratioP1;P1;durP2;ratioP2;P2;SDS_P1;SDS_P2;PMS_P1;PMS_P2;Temp;Humidity;BMP_temperature;BMP_pressure;BME280_temperature;BME280_humidity;BME280_pressure;Samples;Min_cycle;Max_cycle;Signal;HPM_P1;HPM_P2
2023/12/24 00:02:12;;;;;;;12.05;5.80;;;;;;;;;;5061431;28;20758;-57
2023/12/24 00:04:55;;;;;;;13.88;5.25;;;;;;;;;;5063181;28;20504;-54
2023/12/24 00:07:20;;;;;;;12.15;5.57;;;;;;;;;;5057423;28;20098;-57
2023/12/24 00:09:51;;;;;;;10.98;5.75;;;;;;;;;;5068722;28;20123;-55
2023/12/24 00:12:16;;;;;;;10.93;5.55;;;;;;;;;;5069636;28;20067;-57
2023/12/24 00:14:42;;;;;;;9.43;5.13;;;;;;;;;;5065062;28;20054;-58
2023/12/24 00:17:10;;;;;;;9.80;5.78;;;;;;;;;;5065235;28;20045;-53
2023/12/24 00:19:36;;;;;;;11.27;5.63;;;;;;;;;;5080778;28;20052;-56
2023/12/24 00:22:02;;;;;;;16.02;5.35;;;;;;;;;;5065602;28;20052;-54
2023/12/24 00:24:28;;;;;;;11.68;5.65;;;;;;;;;;5058158;28;20048;-57
2023/12/24 00:26:54;;;;;;;11.38;5.07;;;;;;;;;;5061081;28;20041;-56
2023/12/24 00:29:20;;;;;;;12.80;5.88;;;;;;;;;;5066729;28;20113;-55
2023/12/24 00:31:46;;;;;;;15.02;4.95;;;;;;;;;;5067326;28;20048;-56
2023/12/24 00:34:13;;;;;;;9.48;5.15;;;;;;;;;;5066751;28;20037;-55
2023/12/24 00:36:57;;;;;;;13.50;5.57;;;;;;;;;;5065612;28;20062;-58
2023/12/24 00:39:23;;;;;;;10.50;5.07;;;;;;;;;;5065935;28;20531;-53
2023/12/24 00:41:49;;;;;;;8.43;4.88;;;;;;;;;;5061800;28;20040;-54
2023/12/24 00:44:16;;;;;;;10.63;4.90;;;;;;;;;;5069147;28;20327;-53
2023/12/24 00:46:41;;;;;;;9.75;5.00;;;;;;;;;;5066925;28;20620;-55
2023/12/24 00:49:07;;;;;;;9.93;5.10;;;;;;;;;;5064217;28;20052;-57
2023/12/24 00:51:33;;;;;;;9.18;4.72;;;;;;;;;;5096579;27;20052;-61
2023/12/24 00:54:01;;;;;;;11.15;5.22;;;;;;;;;;5069243;28;20516;-54
2023/12/24 00:56:27;;;;;;;11.40;5.43;;;;;;;;;;5061047;28;20049;-55
2023/12/24 00:58:53;;;;;;;12.45;5.10;;;;;;;;;;5065355;28;20096;-55
2023/12/24 01:01:19;;;;;;;7.72;4.22;;;;;;;;;;5066717;28;20136;-56
2023/12/24 01:03:53;;;;;;;7.15;4.15;;;;;;;;;;5062174;28;20052;-57
2023/12/24 01:06:19;;;;;;;9.68;4.10;;;;;;;;;;5080242;28;20599;-57
2023/12/24 01:08:47;;;;;;;8.73;4.72;;;;;;;;;;5064738;28;20067;-56
2023/12/24 01:11:13;;;;;;;7.80;4.05;;;;;;;;;;5057032;28;20091;-53
2023/12/24 01:13:56;;;;;;;10.07;4.18;;;;;;;;;;5063638;28;20396;-60
2023/12/24 01:16:22;;;;;;;7.82;4.00;;;;;;;;;;5065506;28;20048;-59
2023/12/24 01:18:52;;;;;;;12.45;4.47;;;;;;;;;;5060008;28;20048;-56
2023/12/24 01:21:56;;;;;;;10.05;3.50;;;;;;;;;;5059435;28;20077;-57
2023/12/24 01:24:24;;;;;;;14.30;4.13;;;;;;;;;;5070239;28;20052;-60
2023/12/24 01:26:50;;;;;;;7.93;3.67;;;;;;;;;;5060857;28;20036;-59
2023/12/24 01:29:16;;;;;;;5.38;3.70;;;;;;;;;;5063120;28;20088;-55
2023/12/24 01:31:42;;;;;;;6.53;3.58;;;;;;;;;;5058229;28;20067;-55
2023/12/24 01:34:10;;;;;;;9.98;4.05;;;;;;;;;;5061286;28;20053;-59
2023/12/24 01:36:57;;;;;;;7.60;3.90;;;;;;;;;;5060867;28;20094;-57
2023/12/24 01:39:25;;;;;;;6.88;3.60;;;;;;;;;;5062079;28;20060;-56
2023/12/24 01:41:50;;;;;;;8.68;3.97;;;;;;;;;;5062455;28;20088;-57
2023/12/24 01:44:17;;;;;;;8.02;3.35;;;;;;;;;;5068802;28;20080;-53
2023/12/24 01:46:43;;;;;;;7.60;3.30;;;;;;;;;;5072673;28;20076;-57
2023/12/24 01:49:14;;;;;;;7.47;3.50;;;;;;;;;;5070459;28;20056;-56
2023/12/24 01:51:41;;;;;;;5.60;3.42;;;;;;;;;;5054081;28;20109;-55
2023/12/24 01:54:08;;;;;;;6.82;3.20;;;;;;;;;;5066953;28;20049;-52
2023/12/24 01:56:34;;;;;;;7.90;3.33;;;;;;;;;;5062340;28;20114;-54
2023/12/24 01:59:01;;;;;;;9.48;3.42;;;;;;;;;;5063505;28;20492;-54
2023/12/24 02:01:27;;;;;;;9.93;3.63;;;;;;;;;;5065258;28;20192;-57
2023/12/24 02:03:53;;;;;;;8.63;3.67;;;;;;;;;;5063893;28;20186;-63
2023/12/24 02:06:20;;;;;;;5.35;3.28;;;;;;;;;;5071774;28;20080;-54
2023/12/24 02:08:46;;;;;;;7.53;3.95;;;;;;;;;;5060654;28;20049;-53
2023/12/24 02:11:15;;;;;;;6.90;3.45;;;;;;;;;;5066774;28;20370;-56
2023/12/24 02:13:41;;;;;;;7.90;3.85;;;;;;;;;;5069863;28;20050;-58
2023/12/24 02:16:08;;;;;;;7.03;3.53;;;;;;;;;;5064101;28;20045;-52
2023/12/24 02:18:38;;;;;;;7.25;3.97;;;;;;;;;;5060877;28;20048;-53
2023/12/24 02:21:05;;;;;;;7.30;4.10;;;;;;;;;;5068037;28;20044;-57
2023/12/24 02:23:31;;;;;;;6.18;3.88;;;;;;;;;;5066087;28;20052;-54
2023/12/24 02:26:14;;;;;;;7.00;3.50;;;;;;;;;;5062564;28;20700;-55
2023/12/24 02:28:43;;;;;;;8.10;3.85;;;;;;;;;;5049079;28;20080;-54
2023/12/24 02:31:11;;;;;;;5.95;3.70;;;;;;;;;;5059414;28;20348;-54
2023/12/24 02:33:57;;;;;;;7.18;3.58;;;;;;;;;;5069861;28;20052;-56
2023/12/24 02:36:23;;;;;;;7.75;4.18;;;;;;;;;;5065671;28;20106;-55
2023/12/24 02:38:50;;;;;;;9.45;4.57;;;;;;;;;;5065399;28;20110;-54
2023/12/24 02:41:16;;;;;;;11.23;5.20;;;;;;;;;;5063283;28;20123;-54
2023/12/24 02:43:43;;;;;;;7.65;4.15;;;;;;;;;;5066344;28;20060;-51
2023/12/24 02:46:08;;;;;;;7.97;3.63;;;;;;;;;;5069631;28;20054;-54
2023/12/24 02:48:35;;;;;;;7.28;3.53;;;;;;;;;;5068037;28;20053;-51
2023/12/24 02:51:01;;;;;;;11.18;4.07;;;;;;;;;;5063831;28;20048;-53
2023/12/24 02:53:27;;;;;;;8.27;4.40;;;;;;;;;;5062736;28;20068;-54
2023/12/24 02:55:52;;;;;;;8.32;3.70;;;;;;;;;;5062005;28;20107;-54
2023/12/24 02:58:20;;;;;;;7.50;3.55;;;;;;;;;;5066232;28;20156;-56
2023/12/24 03:00:46;;;;;;;7.93;3.97;;;;;;;;;;5068461;28;20048;-56
2023/12/24 03:03:12;;;;;;;5.90;4.07;;;;;;;;;;5058091;28;20161;-57
2023/12/24 03:05:38;;;;;;;7.70;3.50;;;;;;;;;;5064422;28;20048;-55
2023/12/24 03:08:04;;;;;;;10.38;4.22;;;;;;;;;;5096175;28;20052;-56
2023/12/24 03:10:31;;;;;;;11.60;4.25;;;;;;;;;;5069763;28;20063;-56
2023/12/24 03:12:57;;;;;;;8.55;4.30;;;;;;;;;;5064880;28;20049;-54
2023/12/24 03:15:24;;;;;;;8.23;3.60;;;;;;;;;;5065343;28;20053;-51
2023/12/24 03:17:50;;;;;;;6.70;3.45;;;;;;;;;;5067472;28;20447;-52
2023/12/24 03:20:16;;;;;;;8.23;3.80;;;;;;;;;;5060367;28;20048;-50
2023/12/24 03:22:42;;;;;;;6.63;3.70;;;;;;;;;;5064968;28;20478;-54
2023/12/24 03:25:08;;;;;;;9.68;5.00;;;;;;;;;;5067198;28;20059;-52
2023/12/24 03:27:34;;;;;;;6.85;4.07;;;;;;;;;;5068712;28;20057;-60
2023/12/24 03:30:00;;;;;;;7.57;4.10;;;;;;;;;;5065307;28;20055;-56
2023/12/24 03:32:26;;;;;;;9.13;4.03;;;;;;;;;;5065007;28;20064;-55
2023/12/24 03:34:52;;;;;;;10.98;4.63;;;;;;;;;;5056313;28;20060;-55
2023/12/24 03:37:19;;;;;;;7.15;3.72;;;;;;;;;;5053267;28;20113;-54
2023/12/24 03:39:45;;;;;;;10.43;4.03;;;;;;;;;;5067610;28;20048;-55
2023/12/24 03:42:12;;;;;;;8.50;3.78;;;;;;;;;;5057819;28;20105;-55
2023/12/24 03:44:55;;;;;;;7.88;3.70;;;;;;;;;;5064759;28;20488;-55
2023/12/24 03:47:21;;;;;;;7.60;3.83;;;;;;;;;;5064555;28;20056;-56
2023/12/24 03:49:47;;;;;;;7.55;4.05;;;;;;;;;;5063119;28;20046;-57
2023/12/24 03:52:13;;;;;;;7.15;3.65;;;;;;;;;;5063070;28;20086;-54
2023/12/24 03:54:59;;;;;;;6.90;3.50;;;;;;;;;;5061746;28;20746;-54
2023/12/24 03:57:25;;;;;;;6.68;3.88;;;;;;;;;;5063205;28;20048;-53
2023/12/24 03:59:51;;;;;;;8.43;3.78;;;;;;;;;;5062890;28;20133;-53
2023/12/24 04:02:17;;;;;;;8.68;4.43;;;;;;;;;;5062360;28;20077;-56
2023/12/24 04:04:54;;;;;;;10.25;4.05;;;;;;;;;;5052452;28;20465;-57
2023/12/24 04:07:21;;;;;;;8.02;3.72;;;;;;;;;;5068999;28;20040;-56
2023/12/24 04:09:47;;;;;;;8.50;4.32;;;;;;;;;;5061112;28;20048;-56
2023/12/24 04:12:13;;;;;;;9.05;4.53;;;;;;;;;;5066097;28;20543;-58
2023/12/24 04:14:39;;;;;;;11.32;4.30;;;;;;;;;;5064221;28;20095;-57
2023/12/24 04:17:06;;;;;;;7.38;3.83;;;;;;;;;;5062877;28;20041;-57
2023/12/24 04:19:31;;;;;;;10.35;4.30;;;;;;;;;;5059424;28;20048;-56
2023/12/24 04:21:58;;;;;;;9.57;3.83;;;;;;;;;;5066803;28;20041;-56
2023/12/24 04:24:24;;;;;;;7.38;3.90;;;;;;;;;;5063356;28;20094;-54
2023/12/24 04:26:50;;;;;;;8.25;4.18;;;;;;;;;;5053553;28;20055;-51
2023/12/24 04:29:18;;;;;;;7.63;4.30;;;;;;;;;;5059628;28;20404;-56
2023/12/24 04:31:44;;;;;;;6.28;4.20;;;;;;;;;;5060718;28;20412;-52
2023/12/24 04:34:10;;;;;;;9.00;4.53;;;;;;;;;;5064749;28;20033;-53
2023/12/24 04:36:36;;;;;;;9.60;3.92;;;;;;;;;;5064152;28;20052;-54
2023/12/24 04:39:02;;;;;;;7.70;4.20;;;;;;;;;;5059695;28;20109;-53
2023/12/24 04:41:28;;;;;;;8.35;4.32;;;;;;;;;;5053838;28;20048;-53
2023/12/24 04:43:55;;;;;;;8.50;4.05;;;;;;;;;;5079526;28;20044;-57
2023/12/24 04:46:58;;;;;;;7.90;4.00;;;;;;;;;;5063380;28;20041;-54
2023/12/24 04:49:25;;;;;;;18.40;4.72;;;;;;;;;;5060905;28;20762;-55
2023/12/24 04:51:52;;;;;;;7.05;3.95;;;;;;;;;;5058948;28;20532;-54
2023/12/24 04:54:17;;;;;;;5.63;3.67;;;;;;;;;;5071602;28;20128;-55
2023/12/24 04:56:43;;;;;;;5.28;3.33;;;;;;;;;;5062028;28;20078;-52
2023/12/24 04:59:09;;;;;;;4.95;3.53;;;;;;;;;;5055940;28;20048;-51
2023/12/24 05:01:36;;;;;;;10.07;3.97;;;;;;;;;;5056593;28;20053;-53
2023/12/24 05:04:03;;;;;;;9.65;3.90;;;;;;;;;;5075542;28;20047;-55
2023/12/24 05:06:29;;;;;;;6.82;3.65;;;;;;;;;;5057570;28;20106;-59
2023/12/24 05:08:55;;;;;;;9.02;4.10;;;;;;;;;;5059357;28;20159;-55
2023/12/24 05:11:21;;;;;;;7.88;3.92;;;;;;;;;;5051654;28;20064;-57
2023/12/24 05:13:51;;;;;;;6.80;4.00;;;;;;;;;;5062127;28;20443;-53
2023/12/24 05:16:17;;;;;;;9.48;4.28;;;;;;;;;;5060539;28;20115;-54
2023/12/24 05:18:44;;;;;;;12.38;4.15;;;;;;;;;;5061569;28;20431;-58
2023/12/24 05:21:10;;;;;;;11.43;4.32;;;;;;;;;;5065968;28;20656;-54
2023/12/24 05:23:38;;;;;;;16.92;4.22;;;;;;;;;;5068844;28;20122;-57
2023/12/24 05:26:05;;;;;;;9.85;3.70;;;;;;;;;;5062780;28;20056;-59
2023/12/24 05:28:31;;;;;;;6.30;3.33;;;;;;;;;;5102591;28;20048;-56
2023/12/24 05:31:00;;;;;;;6.47;3.53;;;;;;;;;;5069288;28;20408;-53
2023/12/24 05:33:26;;;;;;;10.30;3.53;;;;;;;;;;5067888;28;20574;-56
2023/12/24 05:35:54;;;;;;;6.13;3.40;;;;;;;;;;5066380;28;20052;-57
2023/12/24 05:38:20;;;;;;;7.07;3.40;;;;;;;;;;5067605;28;20680;-52
2023/12/24 05:40:46;;;;;;;6.57;3.50;;;;;;;;;;5076691;28;20049;-54
2023/12/24 05:43:12;;;;;;;7.28;3.40;;;;;;;;;;5072200;28;20136;-55
2023/12/24 05:45:39;;;;;;;7.32;3.60;;;;;;;;;;5071537;28;20052;-56
2023/12/24 05:48:06;;;;;;;7.05;3.35;;;;;;;;;;5072257;28;20044;-54
2023/12/24 05:50:35;;;;;;;7.45;3.65;;;;;;;;;;5070532;28;20497;-53
2023/12/24 05:53:01;;;;;;;7.63;3.60;;;;;;;;;;5068601;28;20400;-55
2023/12/24 05:55:27;;;;;;;7.78;3.40;;;;;;;;;;5066188;28;20048;-57
2023/12/24 05:57:53;;;;;;;7.60;3.83;;;;;;;;;;5076658;28;20045;-57
2023/12/24 06:00:19;;;;;;;7.38;4.30;;;;;;;;;;5063953;28;20067;-53
2023/12/24 06:02:45;;;;;;;7.05;3.47;;;;;;;;;;5068039;28;20045;-58
2023/12/24 06:05:11;;;;;;;8.80;3.47;;;;;;;;;;5067263;28;20051;-50
2023/12/24 06:07:37;;;;;;;5.60;3.50;;;;;;;;;;5065721;28;20048;-57
2023/12/24 06:10:04;;;;;;;8.88;3.40;;;;;;;;;;5064080;28;20373;-56
2023/12/24 06:12:30;;;;;;;8.23;3.40;;;;;;;;;;5065790;28;20041;-55
2023/12/24 06:14:58;;;;;;;9.52;3.33;;;;;;;;;;5070936;28;20659;-55
2023/12/24 06:17:23;;;;;;;9.68;3.35;;;;;;;;;;5070686;28;20048;-54
2023/12/24 06:19:51;;;;;;;6.70;3.40;;;;;;;;;;5065317;28;20052;-54
2023/12/24 06:22:17;;;;;;;7.93;3.17;;;;;;;;;;5069825;28;20532;-59
2023/12/24 06:24:44;;;;;;;11.13;2.97;;;;;;;;;;5065199;28;20536;-57
2023/12/24 06:27:11;;;;;;;9.38;3.25;;;;;;;;;;5069700;28;20056;-53
2023/12/24 06:29:37;;;;;;;7.47;3.58;;;;;;;;;;5064857;28;20420;-54
2023/12/24 06:32:04;;;;;;;6.13;3.38;;;;;;;;;;5071214;28;20048;-59
2023/12/24 06:34:30;;;;;;;4.93;2.85;;;;;;;;;;5067884;28;20056;-59
2023/12/24 06:36:59;;;;;;;8.82;3.30;;;;;;;;;;5067339;28;20368;-57
2023/12/24 06:39:25;;;;;;;6.43;2.80;;;;;;;;;;5063614;28;20651;-53
2023/12/24 06:41:53;;;;;;;5.47;2.80;;;;;;;;;;5062340;28;20052;-56
2023/12/24 06:44:19;;;;;;;5.60;3.20;;;;;;;;;;5068588;28;20342;-52
2023/12/24 06:46:45;;;;;;;6.70;3.92;;;;;;;;;;5064523;28;20098;-54
2023/12/24 06:49:12;;;;;;;5.85;3.05;;;;;;;;;;5068806;28;20048;-57
2023/12/24 06:51:38;;;;;;;6.03;3.17;;;;;;;;;;5068771;28;20062;-57
2023/12/24 06:54:05;;;;;;;4.88;3.05;;;;;;;;;;5065391;28;20053;-56
2023/12/24 06:56:31;;;;;;;4.43;2.67;;;;;;;;;;5059004;28;20267;-53
2023/12/24 06:58:58;;;;;;;8.68;2.90;;;;;;;;;;5069671;28;20091;-55
2023/12/24 07:01:23;;;;;;;5.32;2.90;;;;;;;;;;5063358;28;20052;-54
2023/12/24 07:03:49;;;;;;;9.18;2.90;;;;;;;;;;5066082;28;20082;-53
2023/12/24 07:06:17;;;;;;;6.65;2.80;;;;;;;;;;5065225;28;20090;-54
2023/12/24 07:08:43;;;;;;;6.85;2.65;;;;;;;;;;5064219;28;20577;-54
2023/12/24 07:11:13;;;;;;;7.65;2.50;;;;;;;;;;5063060;28;20083;-53
2023/12/24 07:13:39;;;;;;;8.23;2.95;;;;;;;;;;5060956;28;20473;-51
2023/12/24 07:16:08;;;;;;;5.00;2.40;;;;;;;;;;5067850;28;20397;-54
2023/12/24 07:18:34;;;;;;;5.00;2.70;;;;;;;;;;5067736;28;20072;-57
2023/12/24 07:21:00;;;;;;;6.25;2.40;;;;;;;;;;5063868;28;20068;-53
2023/12/24 07:23:26;;;;;;;4.03;2.50;;;;;;;;;;5063594;28;20518;-55
2023/12/24 07:25:53;;;;;;;11.70;2.65;;;;;;;;;;5062603;28;20144;-55
2023/12/24 07:28:19;;;;;;;4.63;2.50;;;;;;;;;;5065372;28;20064;-57
2023/12/24 07:30:47;;;;;;;7.45;2.50;;;;;;;;;;5063436;28;20076;-54
2023/12/24 07:33:13;;;;;;;5.50;2.35;;;;;;;;;;5061561;28;20053;-53
2023/12/24 07:35:40;;;;;;;8.85;2.40;;;;;;;;;;5058755;28;20090;-53
2023/12/24 07:38:06;;;;;;;4.55;2.30;;;;;;;;;;5058472;28;20510;-55
2023/12/24 07:40:32;;;;;;;5.85;2.30;;;;;;;;;;5056047;28;20040;-52
2023/12/24 07:42:59;;;;;;;7.40;2.20;;;;;;;;;;5053629;28;20423;-56
2023/12/24 07:45:26;;;;;;;5.57;2.53;;;;;;;;;;5048015;28;20053;-52
2023/12/24 07:47:54;;;;;;;3.45;1.83;;;;;;;;;;5054354;28;20100;-55
2023/12/24 07:50:20;;;;;;;5.43;2.42;;;;;;;;;;5055300;28;21235;-54
2023/12/24 07:52:47;;;;;;;5.25;2.90;;;;;;;;;;5055110;28;20080;-58
2023/12/24 07:55:16;;;;;;;6.50;2.38;;;;;;;;;;5056712;28;20060;-54
2023/12/24 07:57:42;;;;;;;4.90;1.88;;;;;;;;;;5056572;28;20048;-54
2023/12/24 08:00:09;;;;;;;3.13;1.90;;;;;;;;;;5054165;28;20679;-60
2023/12/24 08:02:36;;;;;;;5.88;2.03;;;;;;;;;;5051809;28;20056;-54
2023/12/24 08:05:02;;;;;;;7.38;2.35;;;;;;;;;;5058895;28;20056;-56
2023/12/24 08:07:28;;;;;;;12.88;6.22;;;;;;;;;;5059772;28;20303;-56
2023/12/24 08:09:56;;;;;;;4.90;3.10;;;;;;;;;;5057302;28;20815;-52
2023/12/24 08:12:22;;;;;;;4.22;2.63;;;;;;;;;;5054699;28;20469;-54
2023/12/24 08:14:48;;;;;;;4.45;2.60;;;;;;;;;;5060250;28;20040;-51
2023/12/24 08:17:14;;;;;;;4.65;2.70;;;;;;;;;;5056264;28;20056;-53
2023/12/24 08:19:40;;;;;;;4.85;2.90;;;;;;;;;;5055765;28;20068;-56
2023/12/24 08:22:06;;;;;;;5.40;2.50;;;;;;;;;;5055825;28;20049;-57
2023/12/24 08:24:34;;;;;;;5.45;2.90;;;;;;;;;;5048218;28;20060;-54
2023/12/24 08:27:01;;;;;;;8.52;3.28;;;;;;;;;;5055968;28;20059;-54
2023/12/24 08:29:28;;;;;;;5.90;2.75;;;;;;;;;;5073649;28;20288;-58
2023/12/24 08:31:55;;;;;;;10.55;3.00;;;;;;;;;;5058104;28;20445;-53
2023/12/24 08:34:21;;;;;;;4.38;2.58;;;;;;;;;;5054455;28;20052;-58
2023/12/24 08:36:48;;;;;;;5.28;2.70;;;;;;;;;;5059786;28;20059;-54
2023/12/24 08:39:15;;;;;;;7.93;2.60;;;;;;;;;;5063896;28;20048;-61
2023/12/24 08:41:42;;;;;;;5.90;3.00;;;;;;;;;;5066689;28;20071;-58
2023/12/24 08:44:09;;;;;;;8.38;3.28;;;;;;;;;;5060650;28;20066;-57
2023/12/24 08:46:35;;;;;;;8.90;3.58;;;;;;;;;;5058699;28;20487;-57
2023/12/24 08:49:02;;;;;;;12.05;4.82;;;;;;;;;;5054093;28;20123;-56
2023/12/24 08:51:29;;;;;;;8.38;3.10;;;;;;;;;;5050665;28;20056;-51
2023/12/24 08:53:55;;;;;;;5.80;2.90;;;;;;;;;;5068870;28;20144;-58
2023/12/24 08:56:23;;;;;;;5.18;3.00;;;;;;;;;;5060267;28;20477;-55
2023/12/24 08:58:49;;;;;;;5.32;2.97;;;;;;;;;;5059862;28;20091;-55
2023/12/24 09:01:16;;;;;;;5.75;2.90;;;;;;;;;;5059351;28;20048;-56
2023/12/24 09:03:44;;;;;;;5.82;2.40;;;;;;;;;;5044845;28;20058;-56
2023/12/24 09:06:10;;;;;;;6.45;2.50;;;;;;;;;;5058046;28;20045;-57
2023/12/24 09:08:37;;;;;;;7.15;2.95;;;;;;;;;;5050875;28;20066;-56
2023/12/24 09:11:05;;;;;;;10.57;3.50;;;;;;;;;;5051274;28;20052;-57
2023/12/24 09:13:31;;;;;;;5.90;2.25;;;;;;;;;;5052992;28;20059;-59
2023/12/24 09:15:58;;;;;;;4.18;2.50;;;;;;;;;;5058302;28;20090;-54
2023/12/24 09:18:24;;;;;;;4.95;2.28;;;;;;;;;;5077839;28;20686;-57
2023/12/24 09:20:56;;;;;;;3.83;2.35;;;;;;;;;;5050543;28;20060;-58
2023/12/24 09:23:22;;;;;;;7.40;2.53;;;;;;;;;;5046698;28;20094;-59
2023/12/24 09:25:49;;;;;;;6.70;2.40;;;;;;;;;;5083973;27;21678;-62
2023/12/24 09:28:16;;;;;;;4.00;2.38;;;;;;;;;;5054993;28;20049;-59
2023/12/24 09:30:42;;;;;;;4.57;2.20;;;;;;;;;;5058448;28;20048;-60
2023/12/24 09:33:08;;;;;;;11.52;3.70;;;;;;;;;;5047625;28;20059;-58
2023/12/24 09:35:35;;;;;;;4.78;2.47;;;;;;;;;;5051422;28;20156;-56
2023/12/24 09:38:01;;;;;;;4.38;2.47;;;;;;;;;;5050483;28;20048;-56
2023/12/24 09:40:29;;;;;;;4.75;2.40;;;;;;;;;;5047105;28;20175;-57
2023/12/24 09:42:55;;;;;;;6.22;2.72;;;;;;;;;;5052986;28;20056;-55
2023/12/24 09:45:22;;;;;;;4.60;2.80;;;;;;;;;;5051623;28;20390;-61
2023/12/24 09:47:47;;;;;;;7.90;2.83;;;;;;;;;;5052587;28;20109;-56
2023/12/24 09:50:15;;;;;;;7.20;2.83;;;;;;;;;;5051094;28;20044;-54
2023/12/24 09:52:42;;;;;;;4.22;2.58;;;;;;;;;;5053455;28;20142;-56
2023/12/24 09:55:10;;;;;;;5.63;3.10;;;;;;;;;;5042304;28;20076;-57
2023/12/24 09:57:38;;;;;;;5.07;2.40;;;;;;;;;;5051223;28;20053;-55
2023/12/24 10:00:08;;;;;;;6.22;2.85;;;;;;;;;;5048115;28;20033;-56
2023/12/24 10:02:34;;;;;;;6.72;2.67;;;;;;;;;;5052400;28;20045;-57
2023/12/24 10:05:03;;;;;;;7.45;2.55;;;;;;;;;;5053313;28;20048;-56
2023/12/24 10:07:39;;;;;;;5.72;2.60;;;;;;;;;;5052406;28;20063;-62
2023/12/24 10:10:09;;;;;;;4.78;2.67;;;;;;;;;;5054154;28;20722;-55
2023/12/24 10:12:36;;;;;;;7.80;2.53;;;;;;;;;;5049751;28;20060;-57
2023/12/24 10:15:03;;;;;;;5.18;2.38;;;;;;;;;;5050157;28;20044;-58
2023/12/24 10:17:33;;;;;;;4.68;2.50;;;;;;;;;;5056818;28;20053;-56
2023/12/24 10:20:02;;;;;;;5.57;3.20;;;;;;;;;;5051688;28;20079;-53
2023/12/24 10:22:29;;;;;;;8.05;3.20;;;;;;;;;;5052473;28;20492;-55
2023/12/24 10:25:00;;;;;;;6.90;3.20;;;;;;;;;;5050371;28;20904;-53
2023/12/24 10:27:26;;;;;;;6.45;3.40;;;;;;;;;;5057420;28;20087;-56
2023/12/24 10:29:55;;;;;;;5.03;2.60;;;;;;;;;;5059340;28;20060;-54
2023/12/24 10:32:24;;;;;;;5.30;2.85;;;;;;;;;;5050731;28;20135;-54
2023/12/24 10:34:58;;;;;;;8.27;2.97;;;;;;;;;;5055758;28;20072;-54
2023/12/24 10:37:29;;;;;;;7.10;2.80;;;;;;;;;;5055833;28;20140;-55
2023/12/24 10:40:10;;;;;;;5.65;2.80;;;;;;;;;;5060638;28;20060;-58
2023/12/24 10:42:37;;;;;;;8.70;2.53;;;;;;;;;;5059086;28;20049;-57
2023/12/24 10:45:11;;;;;;;7.15;2.67;;;;;;;;;;5056617;28;20726;-56
2023/12/24 10:47:38;;;;;;;8.10;3.53;;;;;;;;;;5061985;28;20056;-58
2023/12/24 10:50:05;;;;;;;5.18;2.60;;;;;;;;;;5052913;28;20091;-54
2023/12/24 10:52:31;;;;;;;8.38;2.60;;;;;;;;;;5048214;28;20733;-55
2023/12/24 10:54:59;;;;;;;7.53;2.83;;;;;;;;;;5043729;28;20056;-58
2023/12/24 10:58:03;;;;;;;5.30;2.70;;;;;;;;;;5046572;28;20547;-62
2023/12/24 11:00:30;;;;;;;13.48;4.10;;;;;;;;;;5061713;28;20098;-61
2023/12/24 11:02:57;;;;;;;17.88;6.43;;;;;;;;;;5062933;28;20120;-64
2023/12/24 11:05:48;;;;;;;18.50;6.93;;;;;;;;;;5069364;28;20059;-66
2023/12/24 11:08:22;;;;;;;28.38;10.73;;;;;;;;;;5055183;28;20067;-61
2023/12/24 11:10:55;;;;;;;25.00;9.82;;;;;;;;;;5068924;28;20101;-64
2023/12/24 11:13:34;;;;;;;12.02;5.13;;;;;;;;;;5072615;28;20453;-60
2023/12/24 11:16:05;;;;;;;34.97;12.63;;;;;;;;;;5061358;28;20052;-62
2023/12/24 11:18:44;;;;;;;17.02;5.10;;;;;;;;;;5065501;28;20086;-63
2023/12/24 11:21:11;;;;;;;15.98;4.68;;;;;;;;;;5059108;28;20051;-62
2023/12/24 11:23:41;;;;;;;12.60;3.78;;;;;;;;;;5059269;28;20052;-60
2023/12/24 11:26:33;;;;;;;10.32;3.20;;;;;;;;;;5061336;28;20056;-61
2023/12/24 11:29:02;;;;;;;9.77;4.68;;;;;;;;;;5060975;28;20055;-53
2023/12/24 11:31:29;;;;;;;8.05;2.78;;;;;;;;;;5076952;28;20076;-63
2023/12/24 11:33:57;;;;;;;7.10;2.33;;;;;;;;;;5061751;28;20558;-62
2023/12/24 11:36:26;;;;;;;8.98;3.10;;;;;;;;;;5056145;28;20120;-63
2023/12/24 11:38:58;;;;;;;5.32;2.78;;;;;;;;;;5054709;28;20049;-62
2023/12/24 11:41:25;;;;;;;8.48;3.00;;;;;;;;;;5064195;28;20045;-62
2023/12/24 11:43:57;;;;;;;6.95;2.63;;;;;;;;;;5062377;28;20052;-60
2023/12/24 11:46:28;;;;;;;4.90;2.50;;;;;;;;;;5064563;28;20541;-63
2023/12/24 11:48:55;;;;;;;4.40;2.20;;;;;;;;;;5069487;28;20392;-62
2023/12/24 11:51:23;;;;;;;6.15;1.60;;;;;;;;;;5067134;28;20114;-61
2023/12/24 11:53:58;;;;;;;6.93;2.83;;;;;;;;;;5055658;28;20568;-60
2023/12/24 11:56:28;;;;;;;5.38;2.70;;;;;;;;;;5068077;28;20101;-58
2023/12/24 11:58:54;;;;;;;29.67;17.10;;;;;;;;;;5062585;28;20055;-64
2023/12/24 12:01:24;;;;;;;5.13;3.80;;;;;;;;;;5058587;28;20477;-64
2023/12/24 12:04:13;;;;;;;6.18;2.78;;;;;;;;;;5086412;28;20828;-65
2023/12/24 12:06:41;;;;;;;5.28;2.30;;;;;;;;;;5059167;28;20867;-62
2023/12/24 12:09:09;;;;;;;6.13;2.38;;;;;;;;;;5054110;28;20677;-65
2023/12/24 12:11:53;;;;;;;4.43;2.55;;;;;;;;;;5072026;28;20074;-63
2023/12/24 12:14:20;;;;;;;4.45;2.60;;;;;;;;;;5054205;28;20056;-65
2023/12/24 12:16:50;;;;;;;8.43;2.67;;;;;;;;;;5045873;28;20111;-65
2023/12/24 12:19:16;;;;;;;8.45;3.85;;;;;;;;;;5052154;28;20052;-63
2023/12/24 12:21:44;;;;;;;10.98;4.88;;;;;;;;;;5053810;28;20113;-62
2023/12/24 12:24:12;;;;;;;5.60;3.13;;;;;;;;;;5053628;28;20105;-63
2023/12/24 12:26:40;;;;;;;7.43;3.03;;;;;;;;;;5058000;28;20049;-62
2023/12/24 12:29:07;;;;;;;10.13;4.35;;;;;;;;;;5054777;28;20126;-63
2023/12/24 12:31:34;;;;;;;9.30;4.15;;;;;;;;;;5061371;28;20058;-63
2023/12/24 12:33:59;;;;;;;7.45;3.58;;;;;;;;;;5057817;28;20104;-64
2023/12/24 12:36:27;;;;;;;6.45;3.25;;;;;;;;;;5046080;28;20060;-62
2023/12/24 12:38:53;;;;;;;12.70;4.05;;;;;;;;;;5051868;28;20051;-65
2023/12/24 12:41:20;;;;;;;6.18;3.08;;;;;;;;;;5052579;28;20060;-63
2023/12/24 12:43:48;;;;;;;7.40;3.45;;;;;;;;;;5048604;28;20059;-62
2023/12/24 12:46:15;;;;;;;7.35;3.40;;;;;;;;;;5056350;28;20056;-64
2023/12/24 12:48:41;;;;;;;8.15;3.15;;;;;;;;;;5052057;28;21664;-64
2023/12/24 12:51:09;;;;;;;8.65;3.83;;;;;;;;;;5053746;28;20048;-64
2023/12/24 12:53:37;;;;;;;9.77;4.95;;;;;;;;;;5067327;28;20044;-65
2023/12/24 12:56:10;;;;;;;8.27;4.30;;;;;;;;;;5058396;28;20044;-64
2023/12/24 12:58:37;;;;;;;9.35;4.28;;;;;;;;;;5052884;28;20712;-64
2023/12/24 13:01:04;;;;;;;13.10;5.32;;;;;;;;;;5048035;28;20102;-65
2023/12/24 13:03:35;;;;;;;12.13;5.72;;;;;;;;;;5054369;28;20144;-60
2023/12/24 13:06:11;;;;;;;11.90;5.30;;;;;;;;;;5059659;28;20611;-64
2023/12/24 13:08:37;;;;;;;12.20;5.97;;;;;;;;;;5054154;28;20057;-63
2023/12/24 13:11:07;;;;;;;8.82;5.03;;;;;;;;;;5070548;28;20044;-64
2023/12/24 13:13:34;;;;;;;11.60;4.60;;;;;;;;;;5071811;28;20070;-64
2023/12/24 13:16:05;;;;;;;8.05;4.22;;;;;;;;;;5054067;28;20062;-64
2023/12/24 13:18:32;;;;;;;10.73;4.97;;;;;;;;;;5051375;28;20139;-63
2023/12/24 13:21:04;;;;;;;9.45;5.20;;;;;;;;;;5051545;28;20154;-63
2023/12/24 13:23:31;;;;;;;7.90;4.97;;;;;;;;;;5061886;28;20394;-62
2023/12/24 13:25:57;;;;;;;10.40;5.22;;;;;;;;;;5060659;28;20052;-60
2023/12/24 13:28:24;;;;;;;12.18;5.85;;;;;;;;;;5053838;28;20151;-64
2023/12/24 13:30:50;;;;;;;14.48;5.50;;;;;;;;;;5057496;28;20063;-63
2023/12/24 13:33:18;;;;;;;8.05;5.38;;;;;;;;;;5067394;28;20048;-65
2023/12/24 13:35:45;;;;;;;11.57;4.78;;;;;;;;;;5062349;28;20045;-64
2023/12/24 13:38:17;;;;;;;7.22;4.50;;;;;;;;;;5094581;28;20048;-62
2023/12/24 13:40:46;;;;;;;15.90;5.70;;;;;;;;;;5073464;28;20053;-64
2023/12/24 13:43:12;;;;;;;8.45;4.70;;;;;;;;;;5054792;28;20060;-64
2023/12/24 13:45:39;;;;;;;10.30;5.13;;;;;;;;;;5053607;28;20044;-67
2023/12/24 13:48:08;;;;;;;8.35;4.72;;;;;;;;;;5073589;28;20075;-61
2023/12/24 13:50:36;;;;;;;8.10;4.63;;;;;;;;;;5062664;28;20052;-69
2023/12/24 13:53:03;;;;;;;11.73;4.50;;;;;;;;;;5066966;28;20044;-62
2023/12/24 13:55:32;;;;;;;10.20;3.88;;;;;;;;;;5062927;28;20056;-63
2023/12/24 13:57:59;;;;;;;6.47;3.60;;;;;;;;;;5069275;28;20113;-63
2023/12/24 14:00:29;;;;;;;11.73;3.90;;;;;;;;;;5060590;28;20060;-64
2023/12/24 14:02:56;;;;;;;8.60;3.58;;;;;;;;;;5094116;28;20058;-64
2023/12/24 14:05:26;;;;;;;7.28;3.40;;;;;;;;;;5061148;28;20548;-63
2023/12/24 14:07:57;;;;;;;8.07;4.00;;;;;;;;;;5063675;28;20044;-63
2023/12/24 14:10:23;;;;;;;7.35;3.50;;;;;;;;;;5062158;28;20086;-64
2023/12/24 14:12:49;;;;;;;7.15;3.65;;;;;;;;;;5061470;28;20052;-63
2023/12/24 14:15:17;;;;;;;7.32;3.70;;;;;;;;;;5063487;28;20051;-64
2023/12/24 14:17:43;;;;;;;8.80;4.35;;;;;;;;;;5064668;28;20045;-64
2023/12/24 14:20:12;;;;;;;9.48;4.30;;;;;;;;;;5055118;28;20077;-63
2023/12/24 14:22:38;;;;;;;10.68;4.07;;;;;;;;;;5062447;28;20048;-62
2023/12/24 14:25:08;;;;;;;7.28;3.83;;;;;;;;;;5053674;28;21384;-63
2023/12/24 14:27:34;;;;;;;7.00;3.55;;;;;;;;;;5058933;28;20159;-63
2023/12/24 14:30:02;;;;;;;7.00;3.65;;;;;;;;;;5053804;28;20558;-63
2023/12/24 14:32:28;;;;;;;8.60;3.30;;;;;;;;;;5061705;28;20041;-63
2023/12/24 14:34:56;;;;;;;7.97;3.92;;;;;;;;;;5046041;28;20522;-64
2023/12/24 14:37:21;;;;;;;9.15;4.05;;;;;;;;;;5059973;28;20052;-64
2023/12/24 14:39:47;;;;;;;6.30;4.32;;;;;;;;;;5055507;28;20116;-63
2023/12/24 14:42:13;;;;;;;8.57;4.60;;;;;;;;;;5058730;28;20049;-62
2023/12/24 14:44:43;;;;;;;7.57;4.78;;;;;;;;;;5060841;28;20045;-62
2023/12/24 14:47:09;;;;;;;7.85;4.72;;;;;;;;;;5060777;28;20045;-64